createdAt,value
2023-03-27T00:00:41.124Z,1006.26
2023-03-27T00:01:41.149Z,1006.27
2023-03-27T00:02:41.231Z,1006.26
2023-03-27T00:03:41.400Z,1006.27
2023-03-27T00:04:41.061Z,1006.29
2023-03-27T00:05:41.039Z,1006.35
2023-03-27T00:06:41.059Z,1006.39
2023-03-27T00:07:41.021Z,1006.37
2023-03-27T00:08:41.016Z,1006.40
2023-03-27T00:09:41.023Z,1006.37
2023-03-27T00:10:40.993Z,1006.45
2023-03-27T00:11:40.979Z,1006.44
2023-03-27T00:12:40.990Z,1006.45
2023-03-27T00:13:42.659Z,1006.47
2023-03-27T00:14:41.951Z,1006.44
2023-03-27T00:15:40.967Z,1006.47
2023-03-27T00:16:40.993Z,1006.46
2023-03-27T00:17:40.938Z,1006.51
2023-03-27T00:18:40.982Z,1006.58
2023-03-27T00:19:40.890Z,1006.61
2023-03-27T00:20:40.876Z,1006.62
2023-03-27T00:21:40.901Z,1006.63
2023-03-27T00:22:40.863Z,1006.61
2023-03-27T00:23:40.839Z,1006.66
2023-03-27T00:24:40.837Z,1006.65
2023-03-27T00:25:40.834Z,1006.68
2023-03-27T00:26:40.982Z,1006.69
2023-03-27T00:27:40.846Z,1006.70
2023-03-27T00:28:40.793Z,1006.68
2023-03-27T00:29:40.782Z,1006.70
2023-03-27T00:30:40.877Z,1006.77
2023-03-27T00:31:40.909Z,1006.77
2023-03-27T00:32:40.818Z,1006.83
2023-03-27T00:33:40.790Z,1006.87
2023-03-27T00:34:40.829Z,1006.92
2023-03-27T00:35:40.795Z,1006.95
2023-03-27T00:36:40.787Z,1006.93
2023-03-27T00:37:40.706Z,1006.98
2023-03-27T00:38:40.688Z,1006.97
2023-03-27T00:39:40.700Z,1006.96
2023-03-27T00:40:40.712Z,1006.97
2023-03-27T00:41:40.759Z,1007.02
2023-03-27T00:42:40.671Z,1006.97
2023-03-27T00:43:40.646Z,1006.99
2023-03-27T00:44:40.625Z,1006.98
2023-03-27T00:45:40.613Z,1006.93
2023-03-27T00:46:40.680Z,1006.96
2023-03-27T00:47:40.690Z,1007.00
2023-03-27T00:48:40.647Z,1007.05
2023-03-27T00:49:40.577Z,1006.99
2023-03-27T00:50:40.564Z,1007.04
2023-03-27T00:51:40.546Z,1007.02
2023-03-27T00:52:40.559Z,1007.00
2023-03-27T00:53:40.572Z,1007.05
2023-03-27T00:54:40.521Z,1007.03
2023-03-27T00:55:40.527Z,1007.04
2023-03-27T00:56:40.523Z,1007.06
2023-03-27T00:57:40.510Z,1007.05
2023-03-27T00:58:40.528Z,1007.11
2023-03-27T00:59:40.470Z,1007.06
2023-03-27T01:00:40.452Z,1007.08
2023-03-27T01:01:40.566Z,1007.07
2023-03-27T01:02:40.481Z,1007.07
2023-03-27T01:03:40.516Z,1007.11
2023-03-27T01:04:40.481Z,1007.10
2023-03-27T01:05:40.395Z,1007.13
2023-03-27T01:06:40.400Z,1007.16
2023-03-27T01:07:40.376Z,1007.16
2023-03-27T01:08:40.379Z,1007.17
2023-03-27T01:09:40.408Z,1007.17
2023-03-27T01:10:40.345Z,1007.17
2023-03-27T01:11:40.436Z,1007.22
2023-03-27T01:12:40.331Z,1007.27
2023-03-27T01:13:40.348Z,1007.29
2023-03-27T01:14:40.308Z,1007.29
2023-03-27T01:15:40.363Z,1007.29
2023-03-27T01:16:40.303Z,1007.36
2023-03-27T01:17:40.369Z,1007.35
2023-03-27T01:18:40.274Z,1007.36
2023-03-27T01:19:40.245Z,1007.36
2023-03-27T01:20:40.313Z,1007.36
2023-03-27T01:21:40.363Z,1007.34
2023-03-27T01:22:40.222Z,1007.40
2023-03-27T01:23:59.892Z,1007.37
2023-03-27T01:24:41.244Z,1007.41
2023-03-27T01:25:40.206Z,1007.34
2023-03-27T01:26:40.278Z,1007.38
2023-03-27T01:27:40.170Z,1007.40
2023-03-27T01:28:40.153Z,1007.44
2023-03-27T01:29:40.143Z,1007.47
2023-03-27T01:30:40.136Z,1007.43
2023-03-27T01:31:40.268Z,1007.46
2023-03-27T01:32:40.159Z,1007.52
2023-03-27T01:33:40.096Z,1007.52
2023-03-27T01:34:40.188Z,1007.51
2023-03-27T01:35:40.225Z,1007.53
2023-03-27T01:36:40.084Z,1007.56
2023-03-27T01:37:40.056Z,1007.58
2023-03-27T01:38:40.082Z,1007.56
2023-03-27T01:39:40.123Z,1007.65
2023-03-27T01:40:40.025Z,1007.67
2023-03-27T01:41:40.070Z,1007.67
2023-03-27T01:42:40.063Z,1007.67
2023-03-27T01:43:40.036Z,1007.67
2023-03-27T01:44:45.208Z,1007.68
2023-03-27T01:45:40.974Z,1007.61
2023-03-27T01:46:40.009Z,1007.72
2023-03-27T01:47:40.080Z,1007.73
2023-03-27T01:48:39.942Z,1007.74
2023-03-27T01:49:39.946Z,1007.79
2023-03-27T01:50:39.930Z,1007.80
2023-03-27T01:51:39.911Z,1007.80
2023-03-27T01:52:39.953Z,1007.77
2023-03-27T01:53:39.905Z,1007.78
2023-03-27T01:54:39.911Z,1007.78
2023-03-27T01:55:39.873Z,1007.79
2023-03-27T01:56:39.881Z,1007.85
2023-03-27T01:57:49.507Z,1007.88
2023-03-27T01:58:40.885Z,1007.88
2023-03-27T01:59:39.833Z,1007.93
2023-03-27T02:01:03.678Z,1007.97
2023-03-27T02:01:40.815Z,1007.95
2023-03-27T02:02:39.888Z,1007.95
2023-03-27T02:03:39.822Z,1007.96
2023-03-27T02:04:39.850Z,1007.96
2023-03-27T02:05:39.753Z,1007.96
2023-03-27T02:06:39.764Z,1007.96
2023-03-27T02:07:39.808Z,1007.96
2023-03-27T02:08:39.769Z,1007.92
2023-03-27T02:09:39.730Z,1007.90
2023-03-27T02:10:39.713Z,1007.92
2023-03-27T02:11:39.701Z,1007.95
2023-03-27T02:12:39.700Z,1008.00
2023-03-27T02:13:39.722Z,1007.98
2023-03-27T02:14:39.663Z,1008.00
2023-03-27T02:15:39.740Z,1008.04
2023-03-27T02:16:39.708Z,1008.00
2023-03-27T02:17:39.729Z,1008.09
2023-03-27T02:18:39.647Z,1008.13
2023-03-27T02:19:39.613Z,1008.14
2023-03-27T02:20:39.600Z,1008.18
2023-03-27T02:21:39.640Z,1008.16
2023-03-27T02:22:39.572Z,1008.17
2023-03-27T02:23:39.580Z,1008.21
2023-03-27T02:24:39.552Z,1008.24
2023-03-27T02:25:39.689Z,1008.26
2023-03-27T02:26:39.553Z,1008.24
2023-03-27T02:27:39.593Z,1008.28
2023-03-27T02:28:39.552Z,1008.33
2023-03-27T02:29:39.561Z,1008.30
2023-03-27T02:30:39.552Z,1008.25
2023-03-27T02:31:39.557Z,1008.25
2023-03-27T02:32:39.600Z,1008.35
2023-03-27T02:33:39.478Z,1008.35
2023-03-27T02:34:39.457Z,1008.36
2023-03-27T02:35:40.364Z,1008.35
2023-03-27T02:36:39.449Z,1008.33
2023-03-27T02:37:39.439Z,1008.42
2023-03-27T02:38:39.468Z,1008.43
2023-03-27T02:39:39.418Z,1008.46
2023-03-27T02:40:39.882Z,1008.51
2023-03-27T02:41:39.379Z,1008.56
2023-03-27T02:42:39.425Z,1008.61
2023-03-27T02:43:39.387Z,1008.53
2023-03-27T02:44:46.061Z,1008.58
2023-03-27T02:45:40.596Z,1008.59
2023-03-27T02:46:39.423Z,1008.65
2023-03-27T02:47:39.351Z,1008.63
2023-03-27T02:48:39.311Z,1008.60
2023-03-27T02:49:39.299Z,1008.64
2023-03-27T02:50:39.307Z,1008.67
2023-03-27T02:51:39.320Z,1008.64
2023-03-27T02:52:39.324Z,1008.72
2023-03-27T02:53:39.334Z,1008.71
2023-03-27T02:54:39.260Z,1008.67
2023-03-27T02:55:39.328Z,1008.70
2023-03-27T02:56:39.328Z,1008.70
2023-03-27T02:57:39.208Z,1008.70
2023-03-27T02:58:39.257Z,1008.63
2023-03-27T02:59:39.201Z,1008.70
2023-03-27T03:00:39.228Z,1008.72
2023-03-27T03:01:39.450Z,1008.69
2023-03-27T03:02:39.263Z,1008.70
2023-03-27T03:03:39.238Z,1008.68
2023-03-27T03:04:39.163Z,1008.62
2023-03-27T03:05:39.212Z,1008.69
2023-03-27T03:06:39.114Z,1008.71
2023-03-27T03:07:39.174Z,1008.72
2023-03-27T03:08:39.442Z,1008.77
2023-03-27T03:09:40.667Z,1008.79
2023-03-27T03:10:39.107Z,1008.82
2023-03-27T03:11:39.119Z,1008.82
2023-03-27T03:12:39.161Z,1008.83
2023-03-27T03:13:39.059Z,1008.87
2023-03-27T03:14:39.038Z,1008.90
2023-03-27T03:15:39.048Z,1008.91
2023-03-27T03:16:39.019Z,1008.93
2023-03-27T03:17:39.043Z,1008.93
2023-03-27T03:18:39.048Z,1008.98
2023-03-27T03:19:38.979Z,1008.99
2023-03-27T03:20:38.967Z,1008.99
2023-03-27T03:21:39.024Z,1009.00
2023-03-27T03:22:38.953Z,1009.01
2023-03-27T03:23:38.954Z,1009.04
2023-03-27T03:24:38.917Z,1009.01
2023-03-27T03:25:38.977Z,1009.08
2023-03-27T03:26:38.910Z,1009.04
2023-03-27T03:27:38.898Z,1009.08
2023-03-27T03:28:38.944Z,1009.12
2023-03-27T03:29:38.925Z,1009.13
2023-03-27T03:30:39.073Z,1009.11
2023-03-27T03:31:38.883Z,1009.17
2023-03-27T03:32:38.927Z,1009.17
2023-03-27T03:33:38.826Z,1009.15
2023-03-27T03:34:38.905Z,1009.16
2023-03-27T03:35:38.869Z,1009.18
2023-03-27T03:36:38.835Z,1009.18
2023-03-27T03:37:39.006Z,1009.19
2023-03-27T03:38:38.790Z,1009.23
2023-03-27T03:39:38.877Z,1009.25
2023-03-27T03:40:38.911Z,1009.27
2023-03-27T03:41:38.770Z,1009.29
2023-03-27T03:42:38.730Z,1009.34
2023-03-27T03:43:38.787Z,1009.35
2023-03-27T03:44:38.801Z,1009.38
2023-03-27T03:45:38.702Z,1009.39
2023-03-27T03:46:38.746Z,1009.40
2023-03-27T03:47:38.875Z,1009.43
2023-03-27T03:48:38.712Z,1009.39
2023-03-27T03:49:38.688Z,1009.49
2023-03-27T03:50:38.693Z,1009.45
2023-03-27T03:51:38.735Z,1009.48
2023-03-27T03:52:38.681Z,1009.50
2023-03-27T03:53:38.627Z,1009.49
2023-03-27T03:54:38.816Z,1009.51
2023-03-27T03:55:38.639Z,1009.49
2023-03-27T03:56:38.687Z,1009.45
2023-03-27T03:57:38.588Z,1009.51
2023-03-27T03:58:38.604Z,1009.46
2023-03-27T03:59:38.598Z,1009.47
2023-03-27T04:00:38.646Z,1009.52
2023-03-27T04:01:38.574Z,1009.52
2023-03-27T04:02:38.707Z,1009.50
2023-03-27T04:03:38.661Z,1009.54
2023-03-27T04:04:38.526Z,1009.53
2023-03-27T04:05:38.575Z,1009.53
2023-03-27T04:06:38.522Z,1009.55
2023-03-27T04:07:38.486Z,1009.56
2023-03-27T04:08:38.464Z,1009.57
2023-03-27T04:09:38.445Z,1009.60
2023-03-27T04:10:38.507Z,1009.61
2023-03-27T04:11:38.438Z,1009.64
2023-03-27T04:12:38.460Z,1009.67
2023-03-27T04:13:38.396Z,1009.75
2023-03-27T04:14:38.401Z,1009.75
2023-03-27T04:15:38.419Z,1009.71
2023-03-27T04:16:38.411Z,1009.77
2023-03-27T04:17:38.562Z,1009.77
2023-03-27T04:18:38.523Z,1009.82
2023-03-27T04:19:38.371Z,1009.83
2023-03-27T04:20:38.356Z,1009.79
2023-03-27T04:21:38.347Z,1009.82
2023-03-27T04:22:38.597Z,1009.84
2023-03-27T04:23:38.352Z,1009.83
2023-03-27T04:24:38.333Z,1009.82
2023-03-27T04:25:38.370Z,1009.85
2023-03-27T04:26:38.340Z,1009.87
2023-03-27T04:27:38.333Z,1009.89
2023-03-27T04:28:38.290Z,1009.89
2023-03-27T04:29:38.258Z,1009.94
2023-03-27T04:30:38.280Z,1009.92
2023-03-27T04:31:38.300Z,1009.98
2023-03-27T04:32:38.253Z,1009.95
2023-03-27T04:33:38.219Z,1010.00
2023-03-27T04:34:38.284Z,1009.99
2023-03-27T04:35:38.218Z,1010.03
2023-03-27T04:36:38.265Z,1010.00
2023-03-27T04:37:38.166Z,1010.02
2023-03-27T04:38:38.171Z,1010.04
2023-03-27T04:39:38.157Z,1010.07
2023-03-27T04:40:38.184Z,1010.02
2023-03-27T04:41:38.179Z,1010.05
2023-03-27T04:42:38.108Z,1010.04
2023-03-27T04:43:38.135Z,1010.10
2023-03-27T04:44:38.181Z,1010.13
2023-03-27T04:45:38.121Z,1010.14
2023-03-27T04:46:38.162Z,1010.13
2023-03-27T04:47:38.145Z,1010.17
2023-03-27T04:48:38.924Z,1010.15
2023-03-27T04:49:38.055Z,1010.17
2023-03-27T04:50:38.058Z,1010.18
2023-03-27T04:51:38.017Z,1010.18
2023-03-27T04:52:38.041Z,1010.23
2023-03-27T04:53:38.165Z,1010.22
2023-03-27T04:54:38.046Z,1010.22
2023-03-27T04:55:37.987Z,1010.25
2023-03-27T04:56:38.047Z,1010.26
2023-03-27T04:57:37.946Z,1010.27
2023-03-27T04:58:38.104Z,1010.29
2023-03-27T04:59:37.958Z,1010.31
2023-03-27T05:00:37.905Z,1010.36
2023-03-27T05:01:38.032Z,1010.33
2023-03-27T05:02:42.152Z,1010.37
2023-03-27T05:03:37.968Z,1010.37
2023-03-27T05:04:38.565Z,1010.41
2023-03-27T05:05:37.903Z,1010.42
2023-03-27T05:06:39.295Z,1010.38
2023-03-27T05:07:37.868Z,1010.42
2023-03-27T05:08:40.211Z,1010.43
2023-03-27T05:09:37.821Z,1010.39
2023-03-27T05:10:37.856Z,1010.40
2023-03-27T05:11:37.801Z,1010.46
2023-03-27T05:12:37.809Z,1010.45
2023-03-27T05:13:37.825Z,1010.43
2023-03-27T05:14:39.536Z,1010.44
2023-03-27T05:15:37.746Z,1010.50
2023-03-27T05:16:37.786Z,1010.47
2023-03-27T05:17:37.731Z,1010.55
2023-03-27T05:18:37.714Z,1010.53
2023-03-27T05:19:37.712Z,1010.52
2023-03-27T05:20:37.714Z,1010.55
2023-03-27T05:21:37.701Z,1010.61
2023-03-27T05:22:39.611Z,1010.57
2023-03-27T05:23:37.657Z,1010.60
2023-03-27T05:24:37.645Z,1010.64
2023-03-27T05:25:37.670Z,1010.59
2023-03-27T05:26:38.541Z,1010.62
2023-03-27T05:27:37.610Z,1010.60
2023-03-27T05:28:37.599Z,1010.69
2023-03-27T05:29:47.052Z,1010.70
2023-03-27T05:30:38.611Z,1010.68
2023-03-27T05:31:37.593Z,1010.69
2023-03-27T05:32:37.612Z,1010.77
2023-03-27T05:33:37.552Z,1010.76
2023-03-27T05:34:37.535Z,1010.74
2023-03-27T05:35:37.650Z,1010.80
2023-03-27T05:36:37.899Z,1010.84
2023-03-27T05:37:37.514Z,1010.81
2023-03-27T05:38:37.481Z,1010.78
2023-03-27T05:39:37.481Z,1010.85
2023-03-27T05:40:37.483Z,1010.82
2023-03-27T05:41:37.473Z,1010.87
2023-03-27T05:42:37.473Z,1010.90
2023-03-27T05:43:37.442Z,1010.92
2023-03-27T05:44:37.456Z,1010.93
2023-03-27T05:45:37.429Z,1010.94
2023-03-27T05:46:37.513Z,1011.00
2023-03-27T05:47:37.503Z,1010.97
2023-03-27T05:48:37.400Z,1010.95
2023-03-27T05:49:37.383Z,1010.95
2023-03-27T05:50:37.462Z,1010.92
2023-03-27T05:51:37.411Z,1010.92
2023-03-27T05:52:37.344Z,1010.97
2023-03-27T05:53:37.362Z,1010.99
2023-03-27T05:54:37.331Z,1011.03
2023-03-27T05:55:37.340Z,1011.02
2023-03-27T05:56:37.325Z,1011.06
2023-03-27T05:57:37.306Z,1011.05
2023-03-27T05:58:37.283Z,1011.07
2023-03-27T05:59:37.425Z,1011.08
2023-03-27T06:00:37.295Z,1011.09
2023-03-27T06:01:37.283Z,1011.11
2023-03-27T06:02:37.287Z,1011.13
2023-03-27T06:03:37.428Z,1011.09
2023-03-27T06:04:37.313Z,1011.11
2023-03-27T06:05:37.214Z,1011.12
2023-03-27T06:06:37.256Z,1011.17
2023-03-27T06:07:37.230Z,1011.18
2023-03-27T06:08:37.184Z,1011.18
2023-03-27T06:09:37.170Z,1011.19
2023-03-27T06:10:37.156Z,1011.25
2023-03-27T06:11:37.169Z,1011.29
2023-03-27T06:12:37.181Z,1011.29
2023-03-27T06:13:37.142Z,1011.28
2023-03-27T06:14:37.130Z,1011.28
2023-03-27T06:15:37.133Z,1011.30
2023-03-27T06:16:37.090Z,1011.31
2023-03-27T06:17:37.117Z,1011.32
2023-03-27T06:18:37.114Z,1011.31
2023-03-27T06:19:37.067Z,1011.34
2023-03-27T06:20:37.053Z,1011.38
2023-03-27T06:21:38.429Z,1011.40
2023-03-27T06:22:37.028Z,1011.38
2023-03-27T06:23:37.037Z,1011.41
2023-03-27T06:24:37.013Z,1011.37
2023-03-27T06:25:37.028Z,1011.43
2023-03-27T06:26:37.448Z,1011.38
2023-03-27T06:27:37.065Z,1011.42
2023-03-27T06:28:36.999Z,1011.44
2023-03-27T06:29:36.972Z,1011.44
2023-03-27T06:30:36.955Z,1011.44
2023-03-27T06:31:36.965Z,1011.44
2023-03-27T06:32:36.980Z,1011.50
2023-03-27T06:33:37.012Z,1011.45
2023-03-27T06:34:36.918Z,1011.53
2023-03-27T06:35:36.980Z,1011.48
2023-03-27T06:36:36.880Z,1011.49
2023-03-27T06:37:36.994Z,1011.49
2023-03-27T06:38:36.869Z,1011.54
2023-03-27T06:39:36.944Z,1011.51
2023-03-27T06:40:36.939Z,1011.52
2023-03-27T06:41:36.894Z,1011.58
2023-03-27T06:42:36.859Z,1011.57
2023-03-27T06:43:36.816Z,1011.56
2023-03-27T06:44:37.080Z,1011.58
2023-03-27T06:45:36.858Z,1011.60
2023-03-27T06:46:45.187Z,1011.59
2023-03-27T06:47:44.737Z,1011.66
2023-03-27T06:48:37.883Z,1011.60
2023-03-27T06:49:36.749Z,1011.62
2023-03-27T06:50:36.740Z,1011.67
2023-03-27T06:51:36.929Z,1011.65
2023-03-27T06:52:36.718Z,1011.67
2023-03-27T06:53:38.241Z,1011.65
2023-03-27T06:54:36.697Z,1011.62
2023-03-27T06:55:36.751Z,1011.67
2023-03-27T06:56:36.707Z,1011.69
2023-03-27T06:57:36.669Z,1011.71
2023-03-27T06:58:36.808Z,1011.72
2023-03-27T06:59:36.654Z,1011.69
2023-03-27T07:00:36.640Z,1011.72
2023-03-27T07:01:36.717Z,1011.75
2023-03-27T07:02:46.569Z,1011.75
2023-03-27T07:03:39.218Z,1011.77
2023-03-27T07:04:39.219Z,1011.76
2023-03-27T07:05:36.694Z,1011.79
2023-03-27T07:06:38.596Z,1011.78
2023-03-27T07:07:37.310Z,1011.80
2023-03-27T07:08:39.807Z,1011.81
2023-03-27T07:09:39.406Z,1011.84
2023-03-27T07:10:36.527Z,1011.89
2023-03-27T07:11:36.539Z,1011.90
2023-03-27T07:12:36.478Z,1011.87
2023-03-27T07:13:36.554Z,1011.90
2023-03-27T07:14:36.577Z,1011.93
2023-03-27T07:15:36.470Z,1011.88
2023-03-27T07:16:36.691Z,1011.92
2023-03-27T07:17:48.145Z,1011.93
2023-03-27T07:18:37.420Z,1012.01
2023-03-27T07:19:36.521Z,1012.04
2023-03-27T07:20:36.395Z,1011.99
2023-03-27T07:21:36.446Z,1011.99
2023-03-27T07:22:36.398Z,1012.02
2023-03-27T07:23:36.373Z,1012.01
2023-03-27T07:24:36.424Z,1012.04
2023-03-27T07:25:36.357Z,1012.13
2023-03-27T07:26:36.334Z,1012.10
2023-03-27T07:27:36.326Z,1012.13
2023-03-27T07:28:36.307Z,1012.17
2023-03-27T07:29:36.301Z,1012.14
2023-03-27T07:30:36.423Z,1012.16
2023-03-27T07:31:55.009Z,1012.15
2023-03-27T07:32:38.087Z,1012.18
2023-03-27T07:33:36.335Z,1012.20
2023-03-27T07:34:36.256Z,1012.20
2023-03-27T07:35:36.273Z,1012.18
2023-03-27T07:36:36.311Z,1012.22
2023-03-27T07:37:37.996Z,1012.24
2023-03-27T07:38:36.214Z,1012.28
2023-03-27T07:39:36.285Z,1012.25
2023-03-27T07:40:40.036Z,1012.26
2023-03-27T07:41:36.217Z,1012.25
2023-03-27T07:42:36.175Z,1012.17
2023-03-27T07:43:36.155Z,1012.26
2023-03-27T07:44:36.144Z,1012.30
2023-03-27T07:45:36.245Z,1012.27
2023-03-27T07:46:36.149Z,1012.30
2023-03-27T07:47:36.180Z,1012.40
2023-03-27T07:48:36.125Z,1012.32
2023-03-27T07:49:39.795Z,1012.31
2023-03-27T07:50:36.148Z,1012.32
2023-03-27T07:51:36.078Z,1012.37
2023-03-27T07:52:36.069Z,1012.41
2023-03-27T07:53:36.090Z,1012.30
2023-03-27T07:54:36.050Z,1012.31
2023-03-27T07:55:36.089Z,1012.42
2023-03-27T07:56:36.055Z,1012.34
2023-03-27T07:57:49.777Z,1012.42
2023-03-27T07:58:37.182Z,1012.46
2023-03-27T07:59:35.974Z,1012.40
2023-03-27T08:00:36.103Z,1012.39
2023-03-27T08:01:35.962Z,1012.47
2023-03-27T08:02:36.011Z,1012.49
2023-03-27T08:03:36.031Z,1012.46
2023-03-27T08:04:36.022Z,1012.43
2023-03-27T08:05:35.934Z,1012.44
2023-03-27T08:06:37.652Z,1012.45
2023-03-27T08:07:35.909Z,1012.45
